Crockett Mills, Tennessee
Current Conditions -  °F | °C
As of 11:15 AM on Sunday 21 Dec 2014 (Local Time) from KDYR Reporting Station
Clear Clear  
Wind Chill: 45°   Ceiling: Unl
Heat Index: 45°   Visibility: 10mi
Dew Point: 27°   Wind: 3mph
Humidity: 49%   Direction: 100°E
Pressure: 30.2"   Gusts: NA
Location:  35.87°N, 89.17°W
Report Text: KDYR 211715Z 10003KT 10SM CLR 07/M03 A3020 RMK AO1
Loading
Personal Weather Stations






























Interactive Weather Map New forecast layout! Learn more

10-Day Weather Forecast

Advertisements
Track Severe Weather on mobile